<?xml version="1.0" encoding="UTF-8" standalone="no" ?>
<gpx xmlns="http://www.topografix.com/GPX/1/1" xmlns:xsi="http://www.w3.org/2001/XMLSchema-instance" xsi:schemaLocation="http://www.topografix.com/GPX/1/1 http://www.topografix.com/GPX/1/1/gpx.xsd" version="1.1" creator="VisuGPX - https://www.visugpx.com">
  <metadata>
    <name>vtt albon</name>
  </metadata>
  <wpt lat="45.26858" lon="5.01512">
    <ele>421.2</ele>
  </wpt>
  <trk>
    <name><![CDATA[vtt albon_1]]></name>
    <trkseg>
      <trkpt lat="45.27953" lon="4.96571">
        <ele>265</ele>
        <time>2021-05-01T21:31:28Z</time>
      </trkpt>
      <trkpt lat="45.27881" lon="4.96495">
        <ele>265</ele>
        <time>2021-05-01T21:31:49Z</time>
      </trkpt>
      <trkpt lat="45.27832" lon="4.96435">
        <ele>265</ele>
        <time>2021-05-01T21:32:04Z</time>
      </trkpt>
      <trkpt lat="45.27762" lon="4.96355">
        <ele>267</ele>
        <time>2021-05-01T21:32:25Z</time>
      </trkpt>
      <trkpt lat="45.27854" lon="4.96299">
        <ele>264</ele>
        <time>2021-05-01T21:32:49Z</time>
      </trkpt>
      <trkpt lat="45.27878" lon="4.96214">
        <ele>261</ele>
        <time>2021-05-01T21:33:04Z</time>
      </trkpt>
      <trkpt lat="45.27898" lon="4.96116">
        <ele>260</ele>
        <time>2021-05-01T21:33:21Z</time>
      </trkpt>
      <trkpt lat="45.27886" lon="4.95963">
        <ele>259</ele>
        <time>2021-05-01T21:33:46Z</time>
      </trkpt>
      <trkpt lat="45.27871" lon="4.95841">
        <ele>260</ele>
        <time>2021-05-01T21:34:06Z</time>
      </trkpt>
      <trkpt lat="45.27864" lon="4.95748">
        <ele>260</ele>
        <time>2021-05-01T21:34:22Z</time>
      </trkpt>
      <trkpt lat="45.27884" lon="4.9558">
        <ele>256</ele>
        <time>2021-05-01T21:34:50Z</time>
      </trkpt>
      <trkpt lat="45.27908" lon="4.95498">
        <ele>254</ele>
        <time>2021-05-01T21:35:04Z</time>
      </trkpt>
      <trkpt lat="45.27937" lon="4.95423">
        <ele>250</ele>
        <time>2021-05-01T21:35:18Z</time>
      </trkpt>
      <trkpt lat="45.27945" lon="4.95366">
        <ele>249</ele>
        <time>2021-05-01T21:35:28Z</time>
      </trkpt>
      <trkpt lat="45.27936" lon="4.95286">
        <ele>247</ele>
        <time>2021-05-01T21:35:41Z</time>
      </trkpt>
      <trkpt lat="45.27885" lon="4.95061">
        <ele>244</ele>
        <time>2021-05-01T21:36:20Z</time>
      </trkpt>
      <trkpt lat="45.27859" lon="4.94913">
        <ele>243</ele>
        <time>2021-05-01T21:36:45Z</time>
      </trkpt>
      <trkpt lat="45.27835" lon="4.9481">
        <ele>241</ele>
        <time>2021-05-01T21:37:03Z</time>
      </trkpt>
      <trkpt lat="45.27776" lon="4.94721">
        <ele>242</ele>
        <time>2021-05-01T21:37:23Z</time>
      </trkpt>
      <trkpt lat="45.27722" lon="4.94741">
        <ele>244</ele>
        <time>2021-05-01T21:37:36Z</time>
      </trkpt>
      <trkpt lat="45.2766" lon="4.9477">
        <ele>245</ele>
        <time>2021-05-01T21:37:51Z</time>
      </trkpt>
      <trkpt lat="45.27592" lon="4.94795">
        <ele>249</ele>
        <time>2021-05-01T21:38:08Z</time>
      </trkpt>
      <trkpt lat="45.27526" lon="4.94811">
        <ele>254</ele>
        <time>2021-05-01T21:38:23Z</time>
      </trkpt>
      <trkpt lat="45.2749" lon="4.94813">
        <ele>256</ele>
        <time>2021-05-01T21:38:32Z</time>
      </trkpt>
      <trkpt lat="45.27472" lon="4.94738">
        <ele>255</ele>
        <time>2021-05-01T21:38:45Z</time>
      </trkpt>
      <trkpt lat="45.27446" lon="4.94674">
        <ele>255</ele>
        <time>2021-05-01T21:38:57Z</time>
      </trkpt>
      <trkpt lat="45.27451" lon="4.94559">
        <ele>254</ele>
        <time>2021-05-01T21:39:16Z</time>
      </trkpt>
      <trkpt lat="45.27437" lon="4.94491">
        <ele>255</ele>
        <time>2021-05-01T21:39:27Z</time>
      </trkpt>
      <trkpt lat="45.2742" lon="4.94472">
        <ele>256</ele>
        <time>2021-05-01T21:39:32Z</time>
      </trkpt>
      <trkpt lat="45.27418" lon="4.94424">
        <ele>254</ele>
        <time>2021-05-01T21:39:40Z</time>
      </trkpt>
      <trkpt lat="45.27393" lon="4.94336">
        <ele>254</ele>
        <time>2021-05-01T21:39:56Z</time>
      </trkpt>
      <trkpt lat="45.27382" lon="4.94256">
        <ele>251</ele>
        <time>2021-05-01T21:40:09Z</time>
      </trkpt>
      <trkpt lat="45.27397" lon="4.94165">
        <ele>247</ele>
        <time>2021-05-01T21:40:25Z</time>
      </trkpt>
      <trkpt lat="45.27399" lon="4.94082">
        <ele>243</ele>
        <time>2021-05-01T21:40:38Z</time>
      </trkpt>
      <trkpt lat="45.27298" lon="4.93886">
        <ele>248</ele>
        <time>2021-05-01T21:41:18Z</time>
      </trkpt>
      <trkpt lat="45.27253" lon="4.93909">
        <ele>253</ele>
        <time>2021-05-01T21:41:29Z</time>
      </trkpt>
      <trkpt lat="45.27199" lon="4.93903">
        <ele>258</ele>
        <time>2021-05-01T21:41:42Z</time>
      </trkpt>
      <trkpt lat="45.27125" lon="4.93868">
        <ele>268</ele>
        <time>2021-05-01T21:42:00Z</time>
      </trkpt>
      <trkpt lat="45.27124" lon="4.9382">
        <ele>266</ele>
        <time>2021-05-01T21:42:08Z</time>
      </trkpt>
      <trkpt lat="45.27116" lon="4.93775">
        <ele>266</ele>
        <time>2021-05-01T21:42:16Z</time>
      </trkpt>
      <trkpt lat="45.27095" lon="4.93717">
        <ele>268</ele>
        <time>2021-05-01T21:42:27Z</time>
      </trkpt>
      <trkpt lat="45.27081" lon="4.93668">
        <ele>268</ele>
        <time>2021-05-01T21:42:35Z</time>
      </trkpt>
      <trkpt lat="45.27064" lon="4.93626">
        <ele>269</ele>
        <time>2021-05-01T21:42:43Z</time>
      </trkpt>
      <trkpt lat="45.27047" lon="4.93574">
        <ele>269</ele>
        <time>2021-05-01T21:42:53Z</time>
      </trkpt>
      <trkpt lat="45.27054" lon="4.93556">
        <ele>266</ele>
        <time>2021-05-01T21:42:56Z</time>
      </trkpt>
      <trkpt lat="45.27079" lon="4.93538">
        <ele>259</ele>
        <time>2021-05-01T21:43:03Z</time>
      </trkpt>
      <trkpt lat="45.27062" lon="4.93496">
        <ele>261</ele>
        <time>2021-05-01T21:43:11Z</time>
      </trkpt>
      <trkpt lat="45.27072" lon="4.93451">
        <ele>255</ele>
        <time>2021-05-01T21:43:18Z</time>
      </trkpt>
      <trkpt lat="45.27071" lon="4.93391">
        <ele>252</ele>
        <time>2021-05-01T21:43:28Z</time>
      </trkpt>
      <trkpt lat="45.27121" lon="4.93368">
        <ele>246</ele>
        <time>2021-05-01T21:43:40Z</time>
      </trkpt>
      <trkpt lat="45.27171" lon="4.93351">
        <ele>241</ele>
        <time>2021-05-01T21:43:52Z</time>
      </trkpt>
      <trkpt lat="45.27159" lon="4.93287">
        <ele>240</ele>
        <time>2021-05-01T21:44:03Z</time>
      </trkpt>
      <trkpt lat="45.27127" lon="4.93231">
        <ele>240</ele>
        <time>2021-05-01T21:44:15Z</time>
      </trkpt>
      <trkpt lat="45.27122" lon="4.93167">
        <ele>240</ele>
        <time>2021-05-01T21:44:26Z</time>
      </trkpt>
      <trkpt lat="45.27098" lon="4.93121">
        <ele>239</ele>
        <time>2021-05-01T21:44:35Z</time>
      </trkpt>
      <trkpt lat="45.27086" lon="4.93035">
        <ele>238</ele>
        <time>2021-05-01T21:44:50Z</time>
      </trkpt>
      <trkpt lat="45.27079" lon="4.92961">
        <ele>237</ele>
        <time>2021-05-01T21:45:02Z</time>
      </trkpt>
      <trkpt lat="45.27055" lon="4.92944">
        <ele>238</ele>
        <time>2021-05-01T21:45:08Z</time>
      </trkpt>
      <trkpt lat="45.27035" lon="4.92822">
        <ele>238</ele>
        <time>2021-05-01T21:45:29Z</time>
      </trkpt>
      <trkpt lat="45.27023" lon="4.92764">
        <ele>237</ele>
        <time>2021-05-01T21:45:39Z</time>
      </trkpt>
      <trkpt lat="45.27008" lon="4.92731">
        <ele>237</ele>
        <time>2021-05-01T21:45:45Z</time>
      </trkpt>
      <trkpt lat="45.26984" lon="4.92695">
        <ele>236</ele>
        <time>2021-05-01T21:45:53Z</time>
      </trkpt>
      <trkpt lat="45.26873" lon="4.92645">
        <ele>239</ele>
        <time>2021-05-01T21:46:20Z</time>
      </trkpt>
      <trkpt lat="45.26784" lon="4.92597">
        <ele>242</ele>
        <time>2021-05-01T21:46:43Z</time>
      </trkpt>
      <trkpt lat="45.26773" lon="4.92564">
        <ele>243</ele>
        <time>2021-05-01T21:46:49Z</time>
      </trkpt>
      <trkpt lat="45.26772" lon="4.92411">
        <ele>245</ele>
        <time>2021-05-01T21:47:14Z</time>
      </trkpt>
      <trkpt lat="45.26698" lon="4.92433">
        <ele>252</ele>
        <time>2021-05-01T21:47:31Z</time>
      </trkpt>
      <trkpt lat="45.26659" lon="4.92447">
        <ele>256</ele>
        <time>2021-05-01T21:47:41Z</time>
      </trkpt>
      <trkpt lat="45.26566" lon="4.92494">
        <ele>267</ele>
        <time>2021-05-01T21:48:04Z</time>
      </trkpt>
      <trkpt lat="45.26509" lon="4.9252">
        <ele>272</ele>
        <time>2021-05-01T21:48:18Z</time>
      </trkpt>
      <trkpt lat="45.26456" lon="4.92553">
        <ele>279</ele>
        <time>2021-05-01T21:48:31Z</time>
      </trkpt>
      <trkpt lat="45.26393" lon="4.92582">
        <ele>289</ele>
        <time>2021-05-01T21:48:47Z</time>
      </trkpt>
      <trkpt lat="45.26352" lon="4.92596">
        <ele>298</ele>
        <time>2021-05-01T21:48:57Z</time>
      </trkpt>
      <trkpt lat="45.26306" lon="4.92622">
        <ele>308</ele>
        <time>2021-05-01T21:49:08Z</time>
      </trkpt>
      <trkpt lat="45.26256" lon="4.92645">
        <ele>319</ele>
        <time>2021-05-01T21:49:21Z</time>
      </trkpt>
      <trkpt lat="45.26243" lon="4.92613">
        <ele>319</ele>
        <time>2021-05-01T21:49:27Z</time>
      </trkpt>
      <trkpt lat="45.26222" lon="4.92574">
        <ele>322</ele>
        <time>2021-05-01T21:49:35Z</time>
      </trkpt>
      <trkpt lat="45.26201" lon="4.92503">
        <ele>321</ele>
        <time>2021-05-01T21:49:47Z</time>
      </trkpt>
      <trkpt lat="45.26193" lon="4.92458">
        <ele>325</ele>
        <time>2021-05-01T21:49:55Z</time>
      </trkpt>
      <trkpt lat="45.26196" lon="4.92413">
        <ele>326</ele>
        <time>2021-05-01T21:50:02Z</time>
      </trkpt>
      <trkpt lat="45.26164" lon="4.9244">
        <ele>332</ele>
        <time>2021-05-01T21:50:11Z</time>
      </trkpt>
      <trkpt lat="45.26141" lon="4.92468">
        <ele>339</ele>
        <time>2021-05-01T21:50:18Z</time>
      </trkpt>
      <trkpt lat="45.26138" lon="4.92503">
        <ele>340</ele>
        <time>2021-05-01T21:50:24Z</time>
      </trkpt>
      <trkpt lat="45.26126" lon="4.92537">
        <ele>346</ele>
        <time>2021-05-01T21:50:30Z</time>
      </trkpt>
      <trkpt lat="45.26127" lon="4.92588">
        <ele>350</ele>
        <time>2021-05-01T21:50:39Z</time>
      </trkpt>
      <trkpt lat="45.26065" lon="4.92722">
        <ele>359</ele>
        <time>2021-05-01T21:51:05Z</time>
      </trkpt>
      <trkpt lat="45.26042" lon="4.92747">
        <ele>359</ele>
        <time>2021-05-01T21:51:12Z</time>
      </trkpt>
      <trkpt lat="45.26017" lon="4.92762">
        <ele>359</ele>
        <time>2021-05-01T21:51:18Z</time>
      </trkpt>
      <trkpt lat="45.26002" lon="4.92723">
        <ele>362</ele>
        <time>2021-05-01T21:51:25Z</time>
      </trkpt>
      <trkpt lat="45.2597" lon="4.92673">
        <ele>364</ele>
        <time>2021-05-01T21:51:36Z</time>
      </trkpt>
      <trkpt lat="45.2596" lon="4.92625">
        <ele>367</ele>
        <time>2021-05-01T21:51:45Z</time>
      </trkpt>
      <trkpt lat="45.25938" lon="4.92579">
        <ele>368</ele>
        <time>2021-05-01T21:51:54Z</time>
      </trkpt>
      <trkpt lat="45.25929" lon="4.9249">
        <ele>370</ele>
        <time>2021-05-01T21:52:09Z</time>
      </trkpt>
      <trkpt lat="45.2591" lon="4.92435">
        <ele>373</ele>
        <time>2021-05-01T21:52:19Z</time>
      </trkpt>
      <trkpt lat="45.25881" lon="4.92322">
        <ele>370</ele>
        <time>2021-05-01T21:52:38Z</time>
      </trkpt>
      <trkpt lat="45.25876" lon="4.92242">
        <ele>371</ele>
        <time>2021-05-01T21:52:52Z</time>
      </trkpt>
      <trkpt lat="45.25876" lon="4.92156">
        <ele>371</ele>
        <time>2021-05-01T21:53:06Z</time>
      </trkpt>
      <trkpt lat="45.2588" lon="4.92073">
        <ele>370</ele>
        <time>2021-05-01T21:53:19Z</time>
      </trkpt>
      <trkpt lat="45.25835" lon="4.9188">
        <ele>366</ele>
        <time>2021-05-01T21:53:53Z</time>
      </trkpt>
      <trkpt lat="45.25801" lon="4.91722">
        <ele>357</ele>
        <time>2021-05-01T21:54:20Z</time>
      </trkpt>
      <trkpt lat="45.25775" lon="4.91654">
        <ele>356</ele>
        <time>2021-05-01T21:54:33Z</time>
      </trkpt>
      <trkpt lat="45.25757" lon="4.91571">
        <ele>359</ele>
        <time>2021-05-01T21:54:47Z</time>
      </trkpt>
      <trkpt lat="45.25761" lon="4.91482">
        <ele>358</ele>
        <time>2021-05-01T21:55:02Z</time>
      </trkpt>
      <trkpt lat="45.2578" lon="4.91428">
        <ele>358</ele>
        <time>2021-05-01T21:55:12Z</time>
      </trkpt>
      <trkpt lat="45.25754" lon="4.91398">
        <ele>358</ele>
        <time>2021-05-01T21:55:19Z</time>
      </trkpt>
      <trkpt lat="45.25726" lon="4.91359">
        <ele>353</ele>
        <time>2021-05-01T21:55:29Z</time>
      </trkpt>
      <trkpt lat="45.25738" lon="4.91315">
        <ele>355</ele>
        <time>2021-05-01T21:55:36Z</time>
      </trkpt>
      <trkpt lat="45.25741" lon="4.91261">
        <ele>356</ele>
        <time>2021-05-01T21:55:45Z</time>
      </trkpt>
      <trkpt lat="45.25732" lon="4.912">
        <ele>358</ele>
        <time>2021-05-01T21:55:56Z</time>
      </trkpt>
      <trkpt lat="45.25682" lon="4.91118">
        <ele>361</ele>
        <time>2021-05-01T21:56:13Z</time>
      </trkpt>
      <trkpt lat="45.25658" lon="4.91088">
        <ele>363</ele>
        <time>2021-05-01T21:56:21Z</time>
      </trkpt>
      <trkpt lat="45.2565" lon="4.91053">
        <ele>363</ele>
        <time>2021-05-01T21:56:27Z</time>
      </trkpt>
      <trkpt lat="45.25644" lon="4.91008">
        <ele>364</ele>
        <time>2021-05-01T21:56:34Z</time>
      </trkpt>
      <trkpt lat="45.25602" lon="4.90949">
        <ele>362</ele>
        <time>2021-05-01T21:56:48Z</time>
      </trkpt>
      <trkpt lat="45.25591" lon="4.90852">
        <ele>364</ele>
        <time>2021-05-01T21:57:04Z</time>
      </trkpt>
      <trkpt lat="45.25602" lon="4.90786">
        <ele>364</ele>
        <time>2021-05-01T21:57:16Z</time>
      </trkpt>
      <trkpt lat="45.25586" lon="4.90671">
        <ele>363</ele>
        <time>2021-05-01T21:57:35Z</time>
      </trkpt>
      <trkpt lat="45.25619" lon="4.90631">
        <ele>358</ele>
        <time>2021-05-01T21:57:45Z</time>
      </trkpt>
      <trkpt lat="45.25508" lon="4.90469">
        <ele>357</ele>
        <time>2021-05-01T21:58:22Z</time>
      </trkpt>
      <trkpt lat="45.25491" lon="4.90402">
        <ele>354</ele>
        <time>2021-05-01T21:58:34Z</time>
      </trkpt>
      <trkpt lat="45.25475" lon="4.90321">
        <ele>351</ele>
        <time>2021-05-01T21:58:48Z</time>
      </trkpt>
      <trkpt lat="45.25444" lon="4.90097">
        <ele>351</ele>
        <time>2021-05-01T21:59:25Z</time>
      </trkpt>
      <trkpt lat="45.25455" lon="4.89722">
        <ele>354</ele>
        <time>2021-05-01T22:00:27Z</time>
      </trkpt>
      <trkpt lat="45.2543" lon="4.8966">
        <ele>354</ele>
        <time>2021-05-01T22:00:39Z</time>
      </trkpt>
      <trkpt lat="45.25381" lon="4.89521">
        <ele>357</ele>
        <time>2021-05-01T22:01:04Z</time>
      </trkpt>
      <trkpt lat="45.25345" lon="4.89427">
        <ele>354</ele>
        <time>2021-05-01T22:01:22Z</time>
      </trkpt>
      <trkpt lat="45.25328" lon="4.89302">
        <ele>352</ele>
        <time>2021-05-01T22:01:43Z</time>
      </trkpt>
      <trkpt lat="45.25329" lon="4.89247">
        <ele>353</ele>
        <time>2021-05-01T22:01:52Z</time>
      </trkpt>
      <trkpt lat="45.25337" lon="4.89194">
        <ele>352</ele>
        <time>2021-05-01T22:02:01Z</time>
      </trkpt>
      <trkpt lat="45.25352" lon="4.89124">
        <ele>348</ele>
        <time>2021-05-01T22:02:13Z</time>
      </trkpt>
      <trkpt lat="45.2536" lon="4.89058">
        <ele>343</ele>
        <time>2021-05-01T22:02:24Z</time>
      </trkpt>
      <trkpt lat="45.25359" lon="4.88997">
        <ele>338</ele>
        <time>2021-05-01T22:02:34Z</time>
      </trkpt>
      <trkpt lat="45.25363" lon="4.8893">
        <ele>336</ele>
        <time>2021-05-01T22:02:45Z</time>
      </trkpt>
      <trkpt lat="45.25358" lon="4.88873">
        <ele>335</ele>
        <time>2021-05-01T22:02:54Z</time>
      </trkpt>
      <trkpt lat="45.25361" lon="4.88819">
        <ele>335</ele>
        <time>2021-05-01T22:03:03Z</time>
      </trkpt>
      <trkpt lat="45.25361" lon="4.88733">
        <ele>338</ele>
        <time>2021-05-01T22:03:17Z</time>
      </trkpt>
      <trkpt lat="45.25356" lon="4.8864">
        <ele>341</ele>
        <time>2021-05-01T22:03:33Z</time>
      </trkpt>
      <trkpt lat="45.25366" lon="4.88491">
        <ele>345</ele>
        <time>2021-05-01T22:03:57Z</time>
      </trkpt>
      <trkpt lat="45.25343" lon="4.88436">
        <ele>345</ele>
        <time>2021-05-01T22:04:08Z</time>
      </trkpt>
      <trkpt lat="45.25304" lon="4.88367">
        <ele>344</ele>
        <time>2021-05-01T22:04:22Z</time>
      </trkpt>
      <trkpt lat="45.25257" lon="4.88269">
        <ele>344</ele>
        <time>2021-05-01T22:04:42Z</time>
      </trkpt>
      <trkpt lat="45.25243" lon="4.88199">
        <ele>342</ele>
        <time>2021-05-01T22:04:54Z</time>
      </trkpt>
      <trkpt lat="45.25227" lon="4.88086">
        <ele>337</ele>
        <time>2021-05-01T22:05:13Z</time>
      </trkpt>
      <trkpt lat="45.25209" lon="4.88015">
        <ele>334</ele>
        <time>2021-05-01T22:05:25Z</time>
      </trkpt>
      <trkpt lat="45.252" lon="4.87916">
        <ele>330</ele>
        <time>2021-05-01T22:05:41Z</time>
      </trkpt>
      <trkpt lat="45.25196" lon="4.87782">
        <ele>328</ele>
        <time>2021-05-01T22:06:04Z</time>
      </trkpt>
      <trkpt lat="45.25207" lon="4.87684">
        <ele>326</ele>
        <time>2021-05-01T22:06:20Z</time>
      </trkpt>
      <trkpt lat="45.25183" lon="4.87572">
        <ele>322</ele>
        <time>2021-05-01T22:06:39Z</time>
      </trkpt>
      <trkpt lat="45.25159" lon="4.87507">
        <ele>320</ele>
        <time>2021-05-01T22:06:51Z</time>
      </trkpt>
      <trkpt lat="45.25123" lon="4.87425">
        <ele>319</ele>
        <time>2021-05-01T22:07:07Z</time>
      </trkpt>
      <trkpt lat="45.25094" lon="4.87424">
        <ele>321</ele>
        <time>2021-05-01T22:07:14Z</time>
      </trkpt>
      <trkpt lat="45.24965" lon="4.87243">
        <ele>322</ele>
        <time>2021-05-01T22:07:56Z</time>
      </trkpt>
      <trkpt lat="45.24933" lon="4.87191">
        <ele>323</ele>
        <time>2021-05-01T22:08:08Z</time>
      </trkpt>
      <trkpt lat="45.24882" lon="4.87137">
        <ele>323</ele>
        <time>2021-05-01T22:08:22Z</time>
      </trkpt>
      <trkpt lat="45.24846" lon="4.87126">
        <ele>322</ele>
        <time>2021-05-01T22:08:31Z</time>
      </trkpt>
      <trkpt lat="45.2484" lon="4.87088">
        <ele>321</ele>
        <time>2021-05-01T22:08:37Z</time>
      </trkpt>
      <trkpt lat="45.24791" lon="4.87069">
        <ele>308</ele>
        <time>2021-05-01T22:08:49Z</time>
      </trkpt>
      <trkpt lat="45.24759" lon="4.86992">
        <ele>290</ele>
        <time>2021-05-01T22:09:04Z</time>
      </trkpt>
      <trkpt lat="45.24708" lon="4.87059">
        <ele>285</ele>
        <time>2021-05-01T22:09:20Z</time>
      </trkpt>
      <trkpt lat="45.24663" lon="4.87064">
        <ele>274</ele>
        <time>2021-05-01T22:09:31Z</time>
      </trkpt>
      <trkpt lat="45.24631" lon="4.87084">
        <ele>267</ele>
        <time>2021-05-01T22:09:39Z</time>
      </trkpt>
      <trkpt lat="45.24628" lon="4.87116">
        <ele>269</ele>
        <time>2021-05-01T22:09:44Z</time>
      </trkpt>
      <trkpt lat="45.24601" lon="4.87134">
        <ele>263</ele>
        <time>2021-05-01T22:09:51Z</time>
      </trkpt>
      <trkpt lat="45.2458" lon="4.87174">
        <ele>261</ele>
        <time>2021-05-01T22:09:59Z</time>
      </trkpt>
      <trkpt lat="45.24537" lon="4.87188">
        <ele>251</ele>
        <time>2021-05-01T22:10:10Z</time>
      </trkpt>
      <trkpt lat="45.245" lon="4.87219">
        <ele>245</ele>
        <time>2021-05-01T22:10:20Z</time>
      </trkpt>
      <trkpt lat="45.24455" lon="4.87229">
        <ele>231</ele>
        <time>2021-05-01T22:10:30Z</time>
      </trkpt>
      <trkpt lat="45.24416" lon="4.87253">
        <ele>220</ele>
        <time>2021-05-01T22:10:40Z</time>
      </trkpt>
      <trkpt lat="45.24408" lon="4.87304">
        <ele>221</ele>
        <time>2021-05-01T22:10:49Z</time>
      </trkpt>
      <trkpt lat="45.24372" lon="4.87385">
        <ele>210</ele>
        <time>2021-05-01T22:11:05Z</time>
      </trkpt>
      <trkpt lat="45.24341" lon="4.8739">
        <ele>201</ele>
        <time>2021-05-01T22:11:12Z</time>
      </trkpt>
      <trkpt lat="45.24308" lon="4.87353">
        <ele>195</ele>
        <time>2021-05-01T22:11:22Z</time>
      </trkpt>
      <trkpt lat="45.24221" lon="4.87336">
        <ele>186</ele>
        <time>2021-05-01T22:11:42Z</time>
      </trkpt>
      <trkpt lat="45.24217" lon="4.87406">
        <ele>188</ele>
        <time>2021-05-01T22:11:54Z</time>
      </trkpt>
      <trkpt lat="45.24202" lon="4.87466">
        <ele>189</ele>
        <time>2021-05-01T22:12:04Z</time>
      </trkpt>
      <trkpt lat="45.24167" lon="4.87493">
        <ele>189</ele>
        <time>2021-05-01T22:12:14Z</time>
      </trkpt>
      <trkpt lat="45.24125" lon="4.87558">
        <ele>187</ele>
        <time>2021-05-01T22:12:28Z</time>
      </trkpt>
      <trkpt lat="45.24108" lon="4.87624">
        <ele>186</ele>
        <time>2021-05-01T22:12:40Z</time>
      </trkpt>
      <trkpt lat="45.24142" lon="4.87712">
        <ele>188</ele>
        <time>2021-05-01T22:12:56Z</time>
      </trkpt>
      <trkpt lat="45.24144" lon="4.87753">
        <ele>189</ele>
        <time>2021-05-01T22:13:03Z</time>
      </trkpt>
      <trkpt lat="45.2412" lon="4.87787">
        <ele>190</ele>
        <time>2021-05-01T22:13:11Z</time>
      </trkpt>
      <trkpt lat="45.24084" lon="4.87782">
        <ele>189</ele>
        <time>2021-05-01T22:13:19Z</time>
      </trkpt>
      <trkpt lat="45.24034" lon="4.87732">
        <ele>188</ele>
        <time>2021-05-01T22:13:33Z</time>
      </trkpt>
      <trkpt lat="45.23996" lon="4.87708">
        <ele>188</ele>
        <time>2021-05-01T22:13:43Z</time>
      </trkpt>
      <trkpt lat="45.2392" lon="4.87708">
        <ele>190</ele>
        <time>2021-05-01T22:14:01Z</time>
      </trkpt>
      <trkpt lat="45.23899" lon="4.87717">
        <ele>190</ele>
        <time>2021-05-01T19:48:18Z</time>
      </trkpt>
      <trkpt lat="45.23899" lon="4.87717">
        <ele>190</ele>
        <time>2021-05-01T19:48:18Z</time>
      </trkpt>
      <trkpt lat="45.23862" lon="4.8776">
        <ele>191</ele>
        <time>2021-05-01T19:48:29Z</time>
      </trkpt>
      <trkpt lat="45.23808" lon="4.87773">
        <ele>194</ele>
        <time>2021-05-01T19:48:42Z</time>
      </trkpt>
      <trkpt lat="45.23747" lon="4.87792">
        <ele>200</ele>
        <time>2021-05-01T19:48:57Z</time>
      </trkpt>
      <trkpt lat="45.23777" lon="4.87921">
        <ele>200</ele>
        <time>2021-05-01T19:49:19Z</time>
      </trkpt>
      <trkpt lat="45.2381" lon="4.88079">
        <ele>200</ele>
        <time>2021-05-01T19:49:46Z</time>
      </trkpt>
      <trkpt lat="45.23861" lon="4.88189">
        <ele>200</ele>
        <time>2021-05-01T19:50:08Z</time>
      </trkpt>
      <trkpt lat="45.23921" lon="4.88345">
        <ele>200</ele>
        <time>2021-05-01T19:50:37Z</time>
      </trkpt>
      <trkpt lat="45.23955" lon="4.8842">
        <ele>201</ele>
        <time>2021-05-01T19:50:52Z</time>
      </trkpt>
      <trkpt lat="45.2398" lon="4.88523">
        <ele>200</ele>
        <time>2021-05-01T19:51:09Z</time>
      </trkpt>
      <trkpt lat="45.23976" lon="4.88596">
        <ele>203</ele>
        <time>2021-05-01T19:51:21Z</time>
      </trkpt>
      <trkpt lat="45.23983" lon="4.88685">
        <ele>206</ele>
        <time>2021-05-01T19:51:36Z</time>
      </trkpt>
      <trkpt lat="45.24017" lon="4.8876">
        <ele>211</ele>
        <time>2021-05-01T19:51:51Z</time>
      </trkpt>
      <trkpt lat="45.24058" lon="4.8882">
        <ele>209</ele>
        <time>2021-05-01T19:52:05Z</time>
      </trkpt>
      <trkpt lat="45.24095" lon="4.88885">
        <ele>208</ele>
        <time>2021-05-01T19:52:18Z</time>
      </trkpt>
      <trkpt lat="45.24125" lon="4.8896">
        <ele>210</ele>
        <time>2021-05-01T19:52:33Z</time>
      </trkpt>
      <trkpt lat="45.24193" lon="4.89147">
        <ele>211</ele>
        <time>2021-05-01T19:53:07Z</time>
      </trkpt>
      <trkpt lat="45.24184" lon="4.89239">
        <ele>216</ele>
        <time>2021-05-01T19:53:22Z</time>
      </trkpt>
      <trkpt lat="45.24177" lon="4.89354">
        <ele>223</ele>
        <time>2021-05-01T19:53:41Z</time>
      </trkpt>
      <trkpt lat="45.24166" lon="4.89442">
        <ele>230</ele>
        <time>2021-05-01T19:53:56Z</time>
      </trkpt>
      <trkpt lat="45.24144" lon="4.89492">
        <ele>231</ele>
        <time>2021-05-01T19:54:06Z</time>
      </trkpt>
      <trkpt lat="45.24107" lon="4.89561">
        <ele>227</ele>
        <time>2021-05-01T19:54:20Z</time>
      </trkpt>
      <trkpt lat="45.24047" lon="4.89695">
        <ele>229</ele>
        <time>2021-05-01T19:54:46Z</time>
      </trkpt>
      <trkpt lat="45.23981" lon="4.8973">
        <ele>236</ele>
        <time>2021-05-01T19:55:03Z</time>
      </trkpt>
      <trkpt lat="45.23938" lon="4.89766">
        <ele>239</ele>
        <time>2021-05-01T19:55:14Z</time>
      </trkpt>
      <trkpt lat="45.23892" lon="4.89796">
        <ele>242</ele>
        <time>2021-05-01T19:55:26Z</time>
      </trkpt>
      <trkpt lat="45.23853" lon="4.89826">
        <ele>243</ele>
        <time>2021-05-01T19:55:36Z</time>
      </trkpt>
      <trkpt lat="45.238" lon="4.89859">
        <ele>248</ele>
        <time>2021-05-01T19:55:50Z</time>
      </trkpt>
      <trkpt lat="45.23718" lon="4.89903">
        <ele>252</ele>
        <time>2021-05-01T19:56:10Z</time>
      </trkpt>
      <trkpt lat="45.23684" lon="4.89927">
        <ele>253</ele>
        <time>2021-05-01T19:56:19Z</time>
      </trkpt>
      <trkpt lat="45.23641" lon="4.89963">
        <ele>257</ele>
        <time>2021-05-01T19:56:31Z</time>
      </trkpt>
      <trkpt lat="45.23577" lon="4.8988">
        <ele>257</ele>
        <time>2021-05-01T19:56:51Z</time>
      </trkpt>
      <trkpt lat="45.23542" lon="4.89767">
        <ele>257</ele>
        <time>2021-05-01T19:57:12Z</time>
      </trkpt>
      <trkpt lat="45.23489" lon="4.89714">
        <ele>262</ele>
        <time>2021-05-01T19:57:27Z</time>
      </trkpt>
      <trkpt lat="45.23572" lon="4.89581">
        <ele>267</ele>
        <time>2021-05-01T19:57:56Z</time>
      </trkpt>
      <trkpt lat="45.23662" lon="4.89534">
        <ele>269</ele>
        <time>2021-05-01T19:58:18Z</time>
      </trkpt>
      <trkpt lat="45.23639" lon="4.89434">
        <ele>282</ele>
        <time>2021-05-01T19:58:36Z</time>
      </trkpt>
      <trkpt lat="45.23592" lon="4.89327">
        <ele>289</ele>
        <time>2021-05-01T19:58:56Z</time>
      </trkpt>
      <trkpt lat="45.23505" lon="4.8932">
        <ele>291</ele>
        <time>2021-05-01T19:59:17Z</time>
      </trkpt>
      <trkpt lat="45.23443" lon="4.89278">
        <ele>294</ele>
        <time>2021-05-01T19:59:33Z</time>
      </trkpt>
      <trkpt lat="45.23386" lon="4.89215">
        <ele>300</ele>
        <time>2021-05-01T19:59:50Z</time>
      </trkpt>
      <trkpt lat="45.23337" lon="4.89169">
        <ele>305</ele>
        <time>2021-05-01T20:00:03Z</time>
      </trkpt>
      <trkpt lat="45.23281" lon="4.89166">
        <ele>309</ele>
        <time>2021-05-01T20:00:16Z</time>
      </trkpt>
      <trkpt lat="45.23259" lon="4.89057">
        <ele>302</ele>
        <time>2021-05-01T20:00:35Z</time>
      </trkpt>
      <trkpt lat="45.23194" lon="4.89238">
        <ele>315</ele>
        <time>2021-05-01T20:01:08Z</time>
      </trkpt>
      <trkpt lat="45.23119" lon="4.89267">
        <ele>319</ele>
        <time>2021-05-01T20:01:27Z</time>
      </trkpt>
      <trkpt lat="45.2306" lon="4.8928">
        <ele>324</ele>
        <time>2021-05-01T20:01:41Z</time>
      </trkpt>
      <trkpt lat="45.22978" lon="4.89318">
        <ele>334</ele>
        <time>2021-05-01T20:02:01Z</time>
      </trkpt>
      <trkpt lat="45.22912" lon="4.89315">
        <ele>341</ele>
        <time>2021-05-01T20:02:16Z</time>
      </trkpt>
      <trkpt lat="45.2283" lon="4.89378">
        <ele>346</ele>
        <time>2021-05-01T20:02:38Z</time>
      </trkpt>
      <trkpt lat="45.2269" lon="4.89511">
        <ele>359</ele>
        <time>2021-05-01T20:03:17Z</time>
      </trkpt>
      <trkpt lat="45.2258" lon="4.89624">
        <ele>362</ele>
        <time>2021-05-01T20:03:49Z</time>
      </trkpt>
      <trkpt lat="45.22531" lon="4.89676">
        <ele>361</ele>
        <time>2021-05-01T20:04:03Z</time>
      </trkpt>
      <trkpt lat="45.22542" lon="4.89705">
        <ele>360</ele>
        <time>2021-05-01T20:04:09Z</time>
      </trkpt>
      <trkpt lat="45.22475" lon="4.89747">
        <ele>359</ele>
        <time>2021-05-01T20:04:26Z</time>
      </trkpt>
      <trkpt lat="45.22405" lon="4.89772">
        <ele>360</ele>
        <time>2021-05-01T20:04:43Z</time>
      </trkpt>
      <trkpt lat="45.22406" lon="4.89829">
        <ele>361</ele>
        <time>2021-05-01T20:04:52Z</time>
      </trkpt>
      <trkpt lat="45.22311" lon="4.9014">
        <ele>361</ele>
        <time>2021-05-01T20:05:48Z</time>
      </trkpt>
      <trkpt lat="45.22349" lon="4.90177">
        <ele>361</ele>
        <time>2021-05-01T20:05:58Z</time>
      </trkpt>
      <trkpt lat="45.22377" lon="4.90213">
        <ele>361</ele>
        <time>2021-05-01T20:06:07Z</time>
      </trkpt>
      <trkpt lat="45.22293" lon="4.90343">
        <ele>362</ele>
        <time>2021-05-01T20:06:36Z</time>
      </trkpt>
      <trkpt lat="45.22253" lon="4.90415">
        <ele>358</ele>
        <time>2021-05-01T20:06:51Z</time>
      </trkpt>
      <trkpt lat="45.22252" lon="4.90475">
        <ele>351</ele>
        <time>2021-05-01T20:07:01Z</time>
      </trkpt>
      <trkpt lat="45.22295" lon="4.90537">
        <ele>345</ele>
        <time>2021-05-01T20:07:16Z</time>
      </trkpt>
      <trkpt lat="45.22293" lon="4.90614">
        <ele>336</ele>
        <time>2021-05-01T20:07:28Z</time>
      </trkpt>
      <trkpt lat="45.22282" lon="4.90722">
        <ele>326</ele>
        <time>2021-05-01T20:07:46Z</time>
      </trkpt>
      <trkpt lat="45.22193" lon="4.90682">
        <ele>326</ele>
        <time>2021-05-01T20:08:08Z</time>
      </trkpt>
      <trkpt lat="45.22111" lon="4.90628">
        <ele>325</ele>
        <time>2021-05-01T20:08:29Z</time>
      </trkpt>
      <trkpt lat="45.21921" lon="4.90453">
        <ele>323</ele>
        <time>2021-05-01T20:09:22Z</time>
      </trkpt>
      <trkpt lat="45.21837" lon="4.90507">
        <ele>313</ele>
        <time>2021-05-01T20:09:44Z</time>
      </trkpt>
      <trkpt lat="45.21788" lon="4.90562">
        <ele>303</ele>
        <time>2021-05-01T20:09:58Z</time>
      </trkpt>
      <trkpt lat="45.21771" lon="4.90634">
        <ele>298</ele>
        <time>2021-05-01T20:10:11Z</time>
      </trkpt>
      <trkpt lat="45.21718" lon="4.90683">
        <ele>290</ele>
        <time>2021-05-01T20:10:25Z</time>
      </trkpt>
      <trkpt lat="45.21571" lon="4.90698">
        <ele>268</ele>
        <time>2021-05-01T20:11:00Z</time>
      </trkpt>
      <trkpt lat="45.21548" lon="4.90729">
        <ele>263</ele>
        <time>2021-05-01T20:11:07Z</time>
      </trkpt>
      <trkpt lat="45.21532" lon="4.9076">
        <ele>260</ele>
        <time>2021-05-01T20:11:14Z</time>
      </trkpt>
      <trkpt lat="45.21526" lon="4.90808">
        <ele>256</ele>
        <time>2021-05-01T20:11:22Z</time>
      </trkpt>
      <trkpt lat="45.21462" lon="4.90773">
        <ele>257</ele>
        <time>2021-05-01T20:11:38Z</time>
      </trkpt>
      <trkpt lat="45.21406" lon="4.90732">
        <ele>258</ele>
        <time>2021-05-01T20:11:52Z</time>
      </trkpt>
      <trkpt lat="45.21353" lon="4.90688">
        <ele>258</ele>
        <time>2021-05-01T20:12:07Z</time>
      </trkpt>
      <trkpt lat="45.21338" lon="4.90576">
        <ele>263</ele>
        <time>2021-05-01T20:12:25Z</time>
      </trkpt>
      <trkpt lat="45.21247" lon="4.90534">
        <ele>257</ele>
        <time>2021-05-01T20:12:48Z</time>
      </trkpt>
      <trkpt lat="45.21186" lon="4.90515">
        <ele>258</ele>
        <time>2021-05-01T20:13:02Z</time>
      </trkpt>
      <trkpt lat="45.21144" lon="4.90494">
        <ele>259</ele>
        <time>2021-05-01T20:13:13Z</time>
      </trkpt>
      <trkpt lat="45.21002" lon="4.90398">
        <ele>260</ele>
        <time>2021-05-01T20:13:49Z</time>
      </trkpt>
      <trkpt lat="45.20961" lon="4.9045">
        <ele>256</ele>
        <time>2021-05-01T20:14:02Z</time>
      </trkpt>
      <trkpt lat="45.20934" lon="4.90529">
        <ele>250</ele>
        <time>2021-05-01T20:14:17Z</time>
      </trkpt>
      <trkpt lat="45.20925" lon="4.90621">
        <ele>242</ele>
        <time>2021-05-01T20:14:32Z</time>
      </trkpt>
      <trkpt lat="45.20923" lon="4.907">
        <ele>238</ele>
        <time>2021-05-01T20:14:45Z</time>
      </trkpt>
      <trkpt lat="45.20886" lon="4.9074">
        <ele>235</ele>
        <time>2021-05-01T20:14:56Z</time>
      </trkpt>
      <trkpt lat="45.20846" lon="4.90731">
        <ele>234</ele>
        <time>2021-05-01T20:15:05Z</time>
      </trkpt>
      <trkpt lat="45.20782" lon="4.90783">
        <ele>237</ele>
        <time>2021-05-01T20:15:23Z</time>
      </trkpt>
      <trkpt lat="45.20723" lon="4.90812">
        <ele>242</ele>
        <time>2021-05-01T20:15:37Z</time>
      </trkpt>
      <trkpt lat="45.2068" lon="4.90816">
        <ele>246</ele>
        <time>2021-05-01T20:15:47Z</time>
      </trkpt>
      <trkpt lat="45.20644" lon="4.90805">
        <ele>249</ele>
        <time>2021-05-01T20:15:56Z</time>
      </trkpt>
      <trkpt lat="45.20577" lon="4.90894">
        <ele>257</ele>
        <time>2021-05-01T20:16:17Z</time>
      </trkpt>
      <trkpt lat="45.20536" lon="4.90918">
        <ele>256</ele>
        <time>2021-05-01T20:16:28Z</time>
      </trkpt>
      <trkpt lat="45.20497" lon="4.90932">
        <ele>253</ele>
        <time>2021-05-01T20:16:37Z</time>
      </trkpt>
      <trkpt lat="45.20461" lon="4.90927">
        <ele>252</ele>
        <time>2021-05-01T20:16:45Z</time>
      </trkpt>
      <trkpt lat="45.20424" lon="4.90897">
        <ele>251</ele>
        <time>2021-05-01T20:16:55Z</time>
      </trkpt>
      <trkpt lat="45.20362" lon="4.9077">
        <ele>251</ele>
        <time>2021-05-01T20:17:21Z</time>
      </trkpt>
      <trkpt lat="45.2032" lon="4.90698">
        <ele>249</ele>
        <time>2021-05-01T20:17:36Z</time>
      </trkpt>
      <trkpt lat="45.20279" lon="4.90642">
        <ele>247</ele>
        <time>2021-05-01T20:17:49Z</time>
      </trkpt>
      <trkpt lat="45.20232" lon="4.90566">
        <ele>247</ele>
        <time>2021-05-01T20:18:06Z</time>
      </trkpt>
      <trkpt lat="45.20304" lon="4.90515">
        <ele>248</ele>
        <time>2021-05-01T20:18:25Z</time>
      </trkpt>
      <trkpt lat="45.20357" lon="4.90492">
        <ele>245</ele>
        <time>2021-05-01T20:18:38Z</time>
      </trkpt>
      <trkpt lat="45.20426" lon="4.90502">
        <ele>241</ele>
        <time>2021-05-01T20:18:54Z</time>
      </trkpt>
      <trkpt lat="45.20465" lon="4.90501">
        <ele>242</ele>
        <time>2021-05-01T20:19:03Z</time>
      </trkpt>
      <trkpt lat="45.20508" lon="4.90464">
        <ele>236</ele>
        <time>2021-05-01T20:19:15Z</time>
      </trkpt>
      <trkpt lat="45.20441" lon="4.90464">
        <ele>236</ele>
        <time>2021-05-01T20:19:31Z</time>
      </trkpt>
      <trkpt lat="45.20468" lon="4.90428">
        <ele>230</ele>
        <time>2021-05-01T20:19:39Z</time>
      </trkpt>
      <trkpt lat="45.20505" lon="4.90401">
        <ele>229</ele>
        <time>2021-05-01T20:19:49Z</time>
      </trkpt>
      <trkpt lat="45.20531" lon="4.9036">
        <ele>234</ele>
        <time>2021-05-01T20:19:58Z</time>
      </trkpt>
      <trkpt lat="45.20553" lon="4.90285">
        <ele>242</ele>
        <time>2021-05-01T20:20:11Z</time>
      </trkpt>
      <trkpt lat="45.20561" lon="4.90206">
        <ele>248</ele>
        <time>2021-05-01T20:20:25Z</time>
      </trkpt>
      <trkpt lat="45.20561" lon="4.9011">
        <ele>257</ele>
        <time>2021-05-01T20:20:40Z</time>
      </trkpt>
      <trkpt lat="45.20593" lon="4.89997">
        <ele>271</ele>
        <time>2021-05-01T20:21:00Z</time>
      </trkpt>
      <trkpt lat="45.20591" lon="4.89911">
        <ele>286</ele>
        <time>2021-05-01T20:21:14Z</time>
      </trkpt>
      <trkpt lat="45.20577" lon="4.89815">
        <ele>296</ele>
        <time>2021-05-01T20:21:31Z</time>
      </trkpt>
      <trkpt lat="45.20518" lon="4.89949">
        <ele>277</ele>
        <time>2021-05-01T20:21:57Z</time>
      </trkpt>
      <trkpt lat="45.20466" lon="4.89956">
        <ele>275</ele>
        <time>2021-05-01T20:22:09Z</time>
      </trkpt>
      <trkpt lat="45.20351" lon="4.89957">
        <ele>275</ele>
        <time>2021-05-01T20:22:36Z</time>
      </trkpt>
      <trkpt lat="45.20288" lon="4.89948">
        <ele>274</ele>
        <time>2021-05-01T20:22:50Z</time>
      </trkpt>
      <trkpt lat="45.20232" lon="4.89946">
        <ele>271</ele>
        <time>2021-05-01T20:23:04Z</time>
      </trkpt>
      <trkpt lat="45.20199" lon="4.89896">
        <ele>275</ele>
        <time>2021-05-01T20:23:15Z</time>
      </trkpt>
      <trkpt lat="45.20175" lon="4.89793">
        <ele>279</ele>
        <time>2021-05-01T20:23:33Z</time>
      </trkpt>
      <trkpt lat="45.20141" lon="4.89789">
        <ele>274</ele>
        <time>2021-05-01T20:23:41Z</time>
      </trkpt>
      <trkpt lat="45.20126" lon="4.89759">
        <ele>272</ele>
        <time>2021-05-01T20:23:47Z</time>
      </trkpt>
      <trkpt lat="45.20101" lon="4.89694">
        <ele>269</ele>
        <time>2021-05-01T20:23:59Z</time>
      </trkpt>
      <trkpt lat="45.20121" lon="4.89584">
        <ele>275</ele>
        <time>2021-05-01T20:24:18Z</time>
      </trkpt>
      <trkpt lat="45.20143" lon="4.89576">
        <ele>277</ele>
        <time>2021-05-01T20:24:23Z</time>
      </trkpt>
      <trkpt lat="45.20146" lon="4.89499">
        <ele>277</ele>
        <time>2021-05-01T20:24:36Z</time>
      </trkpt>
      <trkpt lat="45.20086" lon="4.89433">
        <ele>272</ele>
        <time>2021-05-01T20:24:53Z</time>
      </trkpt>
      <trkpt lat="45.20022" lon="4.8929">
        <ele>269</ele>
        <time>2021-05-01T20:25:21Z</time>
      </trkpt>
      <trkpt lat="45.19976" lon="4.89246">
        <ele>267</ele>
        <time>2021-05-01T20:25:34Z</time>
      </trkpt>
      <trkpt lat="45.19909" lon="4.8923">
        <ele>263</ele>
        <time>2021-05-01T20:25:50Z</time>
      </trkpt>
      <trkpt lat="45.19861" lon="4.89254">
        <ele>259</ele>
        <time>2021-05-01T20:26:02Z</time>
      </trkpt>
      <trkpt lat="45.19783" lon="4.89336">
        <ele>249</ele>
        <time>2021-05-01T20:26:25Z</time>
      </trkpt>
      <trkpt lat="45.19721" lon="4.89285">
        <ele>246</ele>
        <time>2021-05-01T20:26:41Z</time>
      </trkpt>
      <trkpt lat="45.19678" lon="4.89264">
        <ele>244</ele>
        <time>2021-05-01T20:26:52Z</time>
      </trkpt>
      <trkpt lat="45.19602" lon="4.89277">
        <ele>241</ele>
        <time>2021-05-01T20:27:10Z</time>
      </trkpt>
      <trkpt lat="45.19555" lon="4.89256">
        <ele>238</ele>
        <time>2021-05-01T20:27:21Z</time>
      </trkpt>
      <trkpt lat="45.19521" lon="4.89273">
        <ele>237</ele>
        <time>2021-05-01T20:27:30Z</time>
      </trkpt>
      <trkpt lat="45.195" lon="4.89298">
        <ele>237</ele>
        <time>2021-05-01T20:27:36Z</time>
      </trkpt>
      <trkpt lat="45.19465" lon="4.89267">
        <ele>235</ele>
        <time>2021-05-01T20:27:46Z</time>
      </trkpt>
      <trkpt lat="45.19429" lon="4.89253">
        <ele>233</ele>
        <time>2021-05-01T20:27:54Z</time>
      </trkpt>
      <trkpt lat="45.19362" lon="4.89247">
        <ele>232</ele>
        <time>2021-05-01T20:28:10Z</time>
      </trkpt>
      <trkpt lat="45.19232" lon="4.89228">
        <ele>225</ele>
        <time>2021-05-01T20:28:41Z</time>
      </trkpt>
      <trkpt lat="45.19164" lon="4.89228">
        <ele>224</ele>
        <time>2021-05-01T20:28:57Z</time>
      </trkpt>
      <trkpt lat="45.1912" lon="4.89267">
        <ele>222</ele>
        <time>2021-05-01T20:29:09Z</time>
      </trkpt>
      <trkpt lat="45.19093" lon="4.89285">
        <ele>220</ele>
        <time>2021-05-01T20:29:16Z</time>
      </trkpt>
      <trkpt lat="45.19071" lon="4.89361">
        <ele>209</ele>
        <time>2021-05-01T20:29:29Z</time>
      </trkpt>
      <trkpt lat="45.19086" lon="4.89406">
        <ele>207</ele>
        <time>2021-05-01T20:29:37Z</time>
      </trkpt>
      <trkpt lat="45.19109" lon="4.89448">
        <ele>207</ele>
        <time>2021-05-01T20:29:46Z</time>
      </trkpt>
      <trkpt lat="45.19129" lon="4.895">
        <ele>206</ele>
        <time>2021-05-01T20:29:56Z</time>
      </trkpt>
      <trkpt lat="45.19115" lon="4.89519">
        <ele>202</ele>
        <time>2021-05-01T20:30:00Z</time>
      </trkpt>
      <trkpt lat="45.19128" lon="4.89541">
        <ele>203</ele>
        <time>2021-05-01T20:30:05Z</time>
      </trkpt>
      <trkpt lat="45.19072" lon="4.89529">
        <ele>195</ele>
        <time>2021-05-01T20:30:18Z</time>
      </trkpt>
      <trkpt lat="45.19002" lon="4.89612">
        <ele>189</ele>
        <time>2021-05-01T20:30:40Z</time>
      </trkpt>
      <trkpt lat="45.18974" lon="4.89665">
        <ele>189</ele>
        <time>2021-05-01T20:30:51Z</time>
      </trkpt>
      <trkpt lat="45.1893" lon="4.89704">
        <ele>188</ele>
        <time>2021-05-01T20:31:03Z</time>
      </trkpt>
      <trkpt lat="45.18873" lon="4.89765">
        <ele>188</ele>
        <time>2021-05-01T20:31:19Z</time>
      </trkpt>
      <trkpt lat="45.18908" lon="4.89831">
        <ele>190</ele>
        <time>2021-05-01T20:31:33Z</time>
      </trkpt>
      <trkpt lat="45.18979" lon="4.89897">
        <ele>191</ele>
        <time>2021-05-01T20:31:53Z</time>
      </trkpt>
      <trkpt lat="45.18997" lon="4.90016">
        <ele>192</ele>
        <time>2021-05-01T20:32:13Z</time>
      </trkpt>
      <trkpt lat="45.19004" lon="4.90128">
        <ele>193</ele>
        <time>2021-05-01T20:32:31Z</time>
      </trkpt>
      <trkpt lat="45.19037" lon="4.90253">
        <ele>193</ele>
        <time>2021-05-01T20:32:53Z</time>
      </trkpt>
      <trkpt lat="45.19116" lon="4.90448">
        <ele>195</ele>
        <time>2021-05-01T20:33:30Z</time>
      </trkpt>
      <trkpt lat="45.19205" lon="4.90761">
        <ele>201</ele>
        <time>2021-05-01T20:34:26Z</time>
      </trkpt>
      <trkpt lat="45.19266" lon="4.90868">
        <ele>199</ele>
        <time>2021-05-01T20:34:48Z</time>
      </trkpt>
      <trkpt lat="45.19313" lon="4.90957">
        <ele>199</ele>
        <time>2021-05-01T20:35:07Z</time>
      </trkpt>
      <trkpt lat="45.19343" lon="4.91034">
        <ele>200</ele>
        <time>2021-05-01T20:35:21Z</time>
      </trkpt>
      <trkpt lat="45.1936" lon="4.91124">
        <ele>204</ele>
        <time>2021-05-01T20:35:37Z</time>
      </trkpt>
      <trkpt lat="45.19349" lon="4.91171">
        <ele>205</ele>
        <time>2021-05-01T20:35:45Z</time>
      </trkpt>
      <trkpt lat="45.19399" lon="4.9125">
        <ele>204</ele>
        <time>2021-05-01T20:36:02Z</time>
      </trkpt>
      <trkpt lat="45.1946" lon="4.91301">
        <ele>204</ele>
        <time>2021-05-01T20:36:19Z</time>
      </trkpt>
      <trkpt lat="45.19519" lon="4.9138">
        <ele>203</ele>
        <time>2021-05-01T20:36:38Z</time>
      </trkpt>
      <trkpt lat="45.19579" lon="4.91414">
        <ele>203</ele>
        <time>2021-05-01T20:36:53Z</time>
      </trkpt>
      <trkpt lat="45.19618" lon="4.91512">
        <ele>206</ele>
        <time>2021-05-01T20:37:11Z</time>
      </trkpt>
      <trkpt lat="45.19642" lon="4.91611">
        <ele>206</ele>
        <time>2021-05-01T20:37:29Z</time>
      </trkpt>
      <trkpt lat="45.19676" lon="4.91712">
        <ele>208</ele>
        <time>2021-05-01T20:37:47Z</time>
      </trkpt>
      <trkpt lat="45.19721" lon="4.918">
        <ele>207</ele>
        <time>2021-05-01T20:38:05Z</time>
      </trkpt>
      <trkpt lat="45.19775" lon="4.91894">
        <ele>206</ele>
        <time>2021-05-01T20:38:25Z</time>
      </trkpt>
      <trkpt lat="45.19764" lon="4.92101">
        <ele>211</ele>
        <time>2021-05-01T20:38:59Z</time>
      </trkpt>
      <trkpt lat="45.1981" lon="4.92151">
        <ele>209</ele>
        <time>2021-05-01T20:39:12Z</time>
      </trkpt>
      <trkpt lat="45.19869" lon="4.92201">
        <ele>208</ele>
        <time>2021-05-01T20:39:29Z</time>
      </trkpt>
      <trkpt lat="45.19938" lon="4.92449">
        <ele>209</ele>
        <time>2021-05-01T20:40:12Z</time>
      </trkpt>
      <trkpt lat="45.2001" lon="4.92431">
        <ele>210</ele>
        <time>2021-05-01T20:40:29Z</time>
      </trkpt>
      <trkpt lat="45.20088" lon="4.92393">
        <ele>209</ele>
        <time>2021-05-01T20:40:49Z</time>
      </trkpt>
      <trkpt lat="45.20117" lon="4.92499">
        <ele>210</ele>
        <time>2021-05-01T20:41:07Z</time>
      </trkpt>
      <trkpt lat="45.20139" lon="4.92608">
        <ele>210</ele>
        <time>2021-05-01T20:41:26Z</time>
      </trkpt>
      <trkpt lat="45.20152" lon="4.9272">
        <ele>211</ele>
        <time>2021-05-01T20:41:45Z</time>
      </trkpt>
      <trkpt lat="45.20113" lon="4.92769">
        <ele>212</ele>
        <time>2021-05-01T20:41:57Z</time>
      </trkpt>
      <trkpt lat="45.20159" lon="4.92823">
        <ele>214</ele>
        <time>2021-05-01T20:42:11Z</time>
      </trkpt>
      <trkpt lat="45.20236" lon="4.92883">
        <ele>212</ele>
        <time>2021-05-01T20:42:31Z</time>
      </trkpt>
      <trkpt lat="45.20259" lon="4.92846">
        <ele>213</ele>
        <time>2021-05-01T20:42:40Z</time>
      </trkpt>
      <trkpt lat="45.20311" lon="4.92855">
        <ele>213</ele>
        <time>2021-05-01T20:42:52Z</time>
      </trkpt>
      <trkpt lat="45.20333" lon="4.92952">
        <ele>213</ele>
        <time>2021-05-01T20:43:09Z</time>
      </trkpt>
      <trkpt lat="45.2036" lon="4.93055">
        <ele>215</ele>
        <time>2021-05-01T20:43:27Z</time>
      </trkpt>
      <trkpt lat="45.20393" lon="4.93107">
        <ele>215</ele>
        <time>2021-05-01T20:43:38Z</time>
      </trkpt>
      <trkpt lat="45.20446" lon="4.9318">
        <ele>215</ele>
        <time>2021-05-01T20:43:55Z</time>
      </trkpt>
      <trkpt lat="45.2045" lon="4.93253">
        <ele>215</ele>
        <time>2021-05-01T20:44:07Z</time>
      </trkpt>
      <trkpt lat="45.20466" lon="4.9334">
        <ele>217</ele>
        <time>2021-05-01T20:44:22Z</time>
      </trkpt>
      <trkpt lat="45.20492" lon="4.93379">
        <ele>220</ele>
        <time>2021-05-01T20:44:31Z</time>
      </trkpt>
      <trkpt lat="45.20533" lon="4.93378">
        <ele>219</ele>
        <time>2021-05-01T20:44:41Z</time>
      </trkpt>
      <trkpt lat="45.20567" lon="4.9343">
        <ele>219</ele>
        <time>2021-05-01T20:44:52Z</time>
      </trkpt>
      <trkpt lat="45.206" lon="4.93492">
        <ele>221</ele>
        <time>2021-05-01T20:45:05Z</time>
      </trkpt>
      <trkpt lat="45.20659" lon="4.93559">
        <ele>223</ele>
        <time>2021-05-01T20:45:23Z</time>
      </trkpt>
      <trkpt lat="45.20728" lon="4.9361">
        <ele>224</ele>
        <time>2021-05-01T20:45:41Z</time>
      </trkpt>
      <trkpt lat="45.20776" lon="4.93634">
        <ele>224</ele>
        <time>2021-05-01T20:45:53Z</time>
      </trkpt>
      <trkpt lat="45.20814" lon="4.93678">
        <ele>223</ele>
        <time>2021-05-01T20:46:04Z</time>
      </trkpt>
      <trkpt lat="45.2083" lon="4.93732">
        <ele>223</ele>
        <time>2021-05-01T20:46:14Z</time>
      </trkpt>
      <trkpt lat="45.20913" lon="4.93841">
        <ele>223</ele>
        <time>2021-05-01T20:46:40Z</time>
      </trkpt>
      <trkpt lat="45.20944" lon="4.93887">
        <ele>224</ele>
        <time>2021-05-01T20:46:51Z</time>
      </trkpt>
      <trkpt lat="45.20991" lon="4.93944">
        <ele>224</ele>
        <time>2021-05-01T20:47:05Z</time>
      </trkpt>
      <trkpt lat="45.20971" lon="4.94073">
        <ele>226</ele>
        <time>2021-05-01T20:47:27Z</time>
      </trkpt>
      <trkpt lat="45.21027" lon="4.94181">
        <ele>227</ele>
        <time>2021-05-01T20:47:49Z</time>
      </trkpt>
      <trkpt lat="45.21077" lon="4.9425">
        <ele>226</ele>
        <time>2021-05-01T20:48:05Z</time>
      </trkpt>
      <trkpt lat="45.21129" lon="4.94342">
        <ele>228</ele>
        <time>2021-05-01T20:48:25Z</time>
      </trkpt>
      <trkpt lat="45.21175" lon="4.94404">
        <ele>230</ele>
        <time>2021-05-01T20:48:39Z</time>
      </trkpt>
      <trkpt lat="45.2127" lon="4.94457">
        <ele>230</ele>
        <time>2021-05-01T20:49:03Z</time>
      </trkpt>
      <trkpt lat="45.21345" lon="4.9454">
        <ele>228</ele>
        <time>2021-05-01T20:49:26Z</time>
      </trkpt>
      <trkpt lat="45.21406" lon="4.94625">
        <ele>229</ele>
        <time>2021-05-01T20:49:45Z</time>
      </trkpt>
      <trkpt lat="45.21475" lon="4.94644">
        <ele>231</ele>
        <time>2021-05-01T20:50:02Z</time>
      </trkpt>
      <trkpt lat="45.21548" lon="4.94708">
        <ele>233</ele>
        <time>2021-05-01T20:50:22Z</time>
      </trkpt>
      <trkpt lat="45.21568" lon="4.94805">
        <ele>233</ele>
        <time>2021-05-01T20:50:39Z</time>
      </trkpt>
      <trkpt lat="45.2157" lon="4.94971">
        <ele>232</ele>
        <time>2021-05-01T20:51:06Z</time>
      </trkpt>
      <trkpt lat="45.21629" lon="4.95066">
        <ele>233</ele>
        <time>2021-05-01T20:51:27Z</time>
      </trkpt>
      <trkpt lat="45.21678" lon="4.95167">
        <ele>234</ele>
        <time>2021-05-01T20:51:47Z</time>
      </trkpt>
      <trkpt lat="45.21707" lon="4.95257">
        <ele>239</ele>
        <time>2021-05-01T20:52:03Z</time>
      </trkpt>
      <trkpt lat="45.21778" lon="4.95267">
        <ele>238</ele>
        <time>2021-05-01T20:52:20Z</time>
      </trkpt>
      <trkpt lat="45.21869" lon="4.953">
        <ele>237</ele>
        <time>2021-05-01T20:52:42Z</time>
      </trkpt>
      <trkpt lat="45.21919" lon="4.95372">
        <ele>236</ele>
        <time>2021-05-01T20:52:58Z</time>
      </trkpt>
      <trkpt lat="45.21949" lon="4.95444">
        <ele>237</ele>
        <time>2021-05-01T20:53:12Z</time>
      </trkpt>
      <trkpt lat="45.22101" lon="4.95661">
        <ele>238</ele>
        <time>2021-05-01T20:54:02Z</time>
      </trkpt>
      <trkpt lat="45.22187" lon="4.95754">
        <ele>240</ele>
        <time>2021-05-01T20:54:28Z</time>
      </trkpt>
      <trkpt lat="45.22291" lon="4.95823">
        <ele>241</ele>
        <time>2021-05-01T20:54:55Z</time>
      </trkpt>
      <trkpt lat="45.22332" lon="4.95904">
        <ele>242</ele>
        <time>2021-05-01T20:55:11Z</time>
      </trkpt>
      <trkpt lat="45.22382" lon="4.95973">
        <ele>243</ele>
        <time>2021-05-01T20:55:27Z</time>
      </trkpt>
      <trkpt lat="45.22476" lon="4.96051">
        <ele>244</ele>
        <time>2021-05-01T20:55:53Z</time>
      </trkpt>
      <trkpt lat="45.22577" lon="4.959">
        <ele>245</ele>
        <time>2021-05-01T20:56:27Z</time>
      </trkpt>
      <trkpt lat="45.22649" lon="4.95801">
        <ele>249</ele>
        <time>2021-05-01T20:56:50Z</time>
      </trkpt>
      <trkpt lat="45.22703" lon="4.95718">
        <ele>247</ele>
        <time>2021-05-01T20:57:09Z</time>
      </trkpt>
      <trkpt lat="45.2285" lon="4.95515">
        <ele>249</ele>
        <time>2021-05-01T20:57:57Z</time>
      </trkpt>
      <trkpt lat="45.22975" lon="4.95358">
        <ele>263</ele>
        <time>2021-05-01T20:58:36Z</time>
      </trkpt>
      <trkpt lat="45.23016" lon="4.95437">
        <ele>261</ele>
        <time>2021-05-01T20:58:52Z</time>
      </trkpt>
      <trkpt lat="45.23067" lon="4.95458">
        <ele>264</ele>
        <time>2021-05-01T20:59:04Z</time>
      </trkpt>
      <trkpt lat="45.23096" lon="4.95482">
        <ele>264</ele>
        <time>2021-05-01T20:59:12Z</time>
      </trkpt>
      <trkpt lat="45.23155" lon="4.95548">
        <ele>265</ele>
        <time>2021-05-01T20:59:30Z</time>
      </trkpt>
      <trkpt lat="45.23177" lon="4.95584">
        <ele>265</ele>
        <time>2021-05-01T20:59:38Z</time>
      </trkpt>
      <trkpt lat="45.2323" lon="4.95619">
        <ele>270</ele>
        <time>2021-05-01T20:59:51Z</time>
      </trkpt>
      <trkpt lat="45.23261" lon="4.95614">
        <ele>274</ele>
        <time>2021-05-01T20:59:58Z</time>
      </trkpt>
      <trkpt lat="45.23318" lon="4.95709">
        <ele>271</ele>
        <time>2021-05-01T21:00:19Z</time>
      </trkpt>
      <trkpt lat="45.23361" lon="4.95771">
        <ele>269</ele>
        <time>2021-05-01T21:00:33Z</time>
      </trkpt>
      <trkpt lat="45.23395" lon="4.95849">
        <ele>272</ele>
        <time>2021-05-01T21:00:48Z</time>
      </trkpt>
      <trkpt lat="45.23426" lon="4.95972">
        <ele>268</ele>
        <time>2021-05-01T21:01:10Z</time>
      </trkpt>
      <trkpt lat="45.23476" lon="4.96038">
        <ele>270</ele>
        <time>2021-05-01T21:01:26Z</time>
      </trkpt>
      <trkpt lat="45.2356" lon="4.96121">
        <ele>267</ele>
        <time>2021-05-01T21:01:50Z</time>
      </trkpt>
      <trkpt lat="45.2366" lon="4.96193">
        <ele>270</ele>
        <time>2021-05-01T21:02:16Z</time>
      </trkpt>
      <trkpt lat="45.23725" lon="4.96266">
        <ele>271</ele>
        <time>2021-05-01T21:02:35Z</time>
      </trkpt>
      <trkpt lat="45.23749" lon="4.96325">
        <ele>273</ele>
        <time>2021-05-01T21:02:46Z</time>
      </trkpt>
      <trkpt lat="45.23798" lon="4.96314">
        <ele>289</ele>
        <time>2021-05-01T21:02:58Z</time>
      </trkpt>
      <trkpt lat="45.23829" lon="4.96242">
        <ele>299</ele>
        <time>2021-05-01T21:03:12Z</time>
      </trkpt>
      <trkpt lat="45.23858" lon="4.96164">
        <ele>302</ele>
        <time>2021-05-01T21:03:26Z</time>
      </trkpt>
      <trkpt lat="45.23849" lon="4.96282">
        <ele>305</ele>
        <time>2021-05-01T21:03:46Z</time>
      </trkpt>
      <trkpt lat="45.23883" lon="4.96344">
        <ele>311</ele>
        <time>2021-05-01T21:03:59Z</time>
      </trkpt>
      <trkpt lat="45.23935" lon="4.96381">
        <ele>319</ele>
        <time>2021-05-01T21:04:12Z</time>
      </trkpt>
      <trkpt lat="45.23994" lon="4.96397">
        <ele>329</ele>
        <time>2021-05-01T21:04:26Z</time>
      </trkpt>
      <trkpt lat="45.24054" lon="4.96435">
        <ele>337</ele>
        <time>2021-05-01T21:04:42Z</time>
      </trkpt>
      <trkpt lat="45.24109" lon="4.96491">
        <ele>344</ele>
        <time>2021-05-01T21:04:58Z</time>
      </trkpt>
      <trkpt lat="45.24108" lon="4.96542">
        <ele>340</ele>
        <time>2021-05-01T21:05:06Z</time>
      </trkpt>
      <trkpt lat="45.24141" lon="4.96595">
        <ele>346</ele>
        <time>2021-05-01T21:05:18Z</time>
      </trkpt>
      <trkpt lat="45.24165" lon="4.96615">
        <ele>351</ele>
        <time>2021-05-01T21:05:24Z</time>
      </trkpt>
      <trkpt lat="45.24212" lon="4.96608">
        <ele>358</ele>
        <time>2021-05-01T21:05:35Z</time>
      </trkpt>
      <trkpt lat="45.24293" lon="4.96621">
        <ele>367</ele>
        <time>2021-05-01T21:05:54Z</time>
      </trkpt>
      <trkpt lat="45.24369" lon="4.96647">
        <ele>373</ele>
        <time>2021-05-01T21:06:12Z</time>
      </trkpt>
      <trkpt lat="45.24456" lon="4.96693">
        <ele>376</ele>
        <time>2021-05-01T21:06:34Z</time>
      </trkpt>
      <trkpt lat="45.2454" lon="4.96626">
        <ele>374</ele>
        <time>2021-05-01T21:06:57Z</time>
      </trkpt>
      <trkpt lat="45.24567" lon="4.96755">
        <ele>379</ele>
        <time>2021-05-01T21:07:19Z</time>
      </trkpt>
      <trkpt lat="45.24622" lon="4.96898">
        <ele>378</ele>
        <time>2021-05-01T21:07:46Z</time>
      </trkpt>
      <trkpt lat="45.24659" lon="4.97018">
        <ele>381</ele>
        <time>2021-05-01T21:08:07Z</time>
      </trkpt>
      <trkpt lat="45.24693" lon="4.97115">
        <ele>382</ele>
        <time>2021-05-01T21:08:25Z</time>
      </trkpt>
      <trkpt lat="45.24702" lon="4.97198">
        <ele>380</ele>
        <time>2021-05-01T21:08:39Z</time>
      </trkpt>
      <trkpt lat="45.24721" lon="4.97285">
        <ele>379</ele>
        <time>2021-05-01T21:08:54Z</time>
      </trkpt>
      <trkpt lat="45.24788" lon="4.97457">
        <ele>377</ele>
        <time>2021-05-01T21:09:26Z</time>
      </trkpt>
      <trkpt lat="45.24831" lon="4.97554">
        <ele>378</ele>
        <time>2021-05-01T21:09:45Z</time>
      </trkpt>
      <trkpt lat="45.24951" lon="4.97621">
        <ele>372</ele>
        <time>2021-05-01T21:10:15Z</time>
      </trkpt>
      <trkpt lat="45.24975" lon="4.97555">
        <ele>366</ele>
        <time>2021-05-01T21:10:27Z</time>
      </trkpt>
      <trkpt lat="45.25005" lon="4.97544">
        <ele>363</ele>
        <time>2021-05-01T21:10:34Z</time>
      </trkpt>
      <trkpt lat="45.2504" lon="4.97564">
        <ele>358</ele>
        <time>2021-05-01T21:10:43Z</time>
      </trkpt>
      <trkpt lat="45.25055" lon="4.97597">
        <ele>356</ele>
        <time>2021-05-01T21:10:50Z</time>
      </trkpt>
      <trkpt lat="45.25094" lon="4.97589">
        <ele>350</ele>
        <time>2021-05-01T21:10:59Z</time>
      </trkpt>
      <trkpt lat="45.2514" lon="4.97572">
        <ele>345</ele>
        <time>2021-05-01T21:11:10Z</time>
      </trkpt>
      <trkpt lat="45.2514" lon="4.97518">
        <ele>342</ele>
        <time>2021-05-01T21:11:19Z</time>
      </trkpt>
      <trkpt lat="45.25167" lon="4.97516">
        <ele>338</ele>
        <time>2021-05-01T21:11:25Z</time>
      </trkpt>
      <trkpt lat="45.25204" lon="4.97537">
        <ele>334</ele>
        <time>2021-05-01T21:11:34Z</time>
      </trkpt>
      <trkpt lat="45.25266" lon="4.97559">
        <ele>326</ele>
        <time>2021-05-01T21:11:49Z</time>
      </trkpt>
      <trkpt lat="45.25284" lon="4.97621">
        <ele>329</ele>
        <time>2021-05-01T21:12:00Z</time>
      </trkpt>
      <trkpt lat="45.25314" lon="4.97686">
        <ele>330</ele>
        <time>2021-05-01T21:12:13Z</time>
      </trkpt>
      <trkpt lat="45.25327" lon="4.97788">
        <ele>333</ele>
        <time>2021-05-01T21:12:30Z</time>
      </trkpt>
      <trkpt lat="45.25335" lon="4.9783">
        <ele>334</ele>
        <time>2021-05-01T21:12:37Z</time>
      </trkpt>
      <trkpt lat="45.2536" lon="4.9785">
        <ele>333</ele>
        <time>2021-05-01T21:12:44Z</time>
      </trkpt>
      <trkpt lat="45.25381" lon="4.97912">
        <ele>334</ele>
        <time>2021-05-01T21:12:55Z</time>
      </trkpt>
      <trkpt lat="45.25415" lon="4.97971">
        <ele>334</ele>
        <time>2021-05-01T21:13:08Z</time>
      </trkpt>
      <trkpt lat="45.25445" lon="4.98062">
        <ele>337</ele>
        <time>2021-05-01T21:13:24Z</time>
      </trkpt>
      <trkpt lat="45.25425" lon="4.98118">
        <ele>336</ele>
        <time>2021-05-01T21:13:35Z</time>
      </trkpt>
      <trkpt lat="45.25423" lon="4.98198">
        <ele>337</ele>
        <time>2021-05-01T21:13:48Z</time>
      </trkpt>
      <trkpt lat="45.25465" lon="4.98327">
        <ele>337</ele>
        <time>2021-05-01T21:14:11Z</time>
      </trkpt>
      <trkpt lat="45.2546" lon="4.98378">
        <ele>341</ele>
        <time>2021-05-01T21:14:20Z</time>
      </trkpt>
      <trkpt lat="45.25479" lon="4.9843">
        <ele>344</ele>
        <time>2021-05-01T21:14:29Z</time>
      </trkpt>
      <trkpt lat="45.2553" lon="4.98448">
        <ele>343</ele>
        <time>2021-05-01T21:14:42Z</time>
      </trkpt>
      <trkpt lat="45.2557" lon="4.98478">
        <ele>344</ele>
        <time>2021-05-01T21:14:52Z</time>
      </trkpt>
      <trkpt lat="45.25631" lon="4.98542">
        <ele>348</ele>
        <time>2021-05-01T21:15:10Z</time>
      </trkpt>
      <trkpt lat="45.25682" lon="4.98602">
        <ele>348</ele>
        <time>2021-05-01T21:15:25Z</time>
      </trkpt>
      <trkpt lat="45.2573" lon="4.98665">
        <ele>348</ele>
        <time>2021-05-01T21:15:41Z</time>
      </trkpt>
      <trkpt lat="45.25763" lon="4.98663">
        <ele>347</ele>
        <time>2021-05-01T21:15:48Z</time>
      </trkpt>
      <trkpt lat="45.25795" lon="4.98604">
        <ele>352</ele>
        <time>2021-05-01T21:16:01Z</time>
      </trkpt>
      <trkpt lat="45.25797" lon="4.98509">
        <ele>361</ele>
        <time>2021-05-01T21:16:16Z</time>
      </trkpt>
      <trkpt lat="45.25822" lon="4.98468">
        <ele>367</ele>
        <time>2021-05-01T21:16:25Z</time>
      </trkpt>
      <trkpt lat="45.25854" lon="4.98444">
        <ele>371</ele>
        <time>2021-05-01T21:16:34Z</time>
      </trkpt>
      <trkpt lat="45.25908" lon="4.98469">
        <ele>372</ele>
        <time>2021-05-01T21:16:47Z</time>
      </trkpt>
      <trkpt lat="45.25968" lon="4.98402">
        <ele>375</ele>
        <time>2021-05-01T21:17:05Z</time>
      </trkpt>
      <trkpt lat="45.26022" lon="4.98366">
        <ele>377</ele>
        <time>2021-05-01T21:17:19Z</time>
      </trkpt>
      <trkpt lat="45.26035" lon="4.98239">
        <ele>382</ele>
        <time>2021-05-01T21:17:40Z</time>
      </trkpt>
      <trkpt lat="45.26051" lon="4.98129">
        <ele>387</ele>
        <time>2021-05-01T21:17:58Z</time>
      </trkpt>
      <trkpt lat="45.26097" lon="4.98156">
        <ele>386</ele>
        <time>2021-05-01T21:18:10Z</time>
      </trkpt>
      <trkpt lat="45.26162" lon="4.98169">
        <ele>388</ele>
        <time>2021-05-01T21:18:25Z</time>
      </trkpt>
      <trkpt lat="45.26216" lon="4.98175">
        <ele>388</ele>
        <time>2021-05-01T21:18:38Z</time>
      </trkpt>
      <trkpt lat="45.26306" lon="4.9817">
        <ele>390</ele>
        <time>2021-05-01T21:18:59Z</time>
      </trkpt>
      <trkpt lat="45.26376" lon="4.9816">
        <ele>391</ele>
        <time>2021-05-01T21:19:15Z</time>
      </trkpt>
      <trkpt lat="45.26428" lon="4.9814">
        <ele>392</ele>
        <time>2021-05-01T21:19:28Z</time>
      </trkpt>
      <trkpt lat="45.26443" lon="4.9809">
        <ele>393</ele>
        <time>2021-05-01T21:19:37Z</time>
      </trkpt>
      <trkpt lat="45.26431" lon="4.9801">
        <ele>392</ele>
        <time>2021-05-01T21:19:50Z</time>
      </trkpt>
      <trkpt lat="45.26369" lon="4.97797">
        <ele>390</ele>
        <time>2021-05-01T21:20:28Z</time>
      </trkpt>
      <trkpt lat="45.26346" lon="4.97709">
        <ele>389</ele>
        <time>2021-05-01T21:20:44Z</time>
      </trkpt>
      <trkpt lat="45.2637" lon="4.97653">
        <ele>389</ele>
        <time>2021-05-01T21:20:54Z</time>
      </trkpt>
      <trkpt lat="45.26457" lon="4.976">
        <ele>389</ele>
        <time>2021-05-01T21:21:16Z</time>
      </trkpt>
      <trkpt lat="45.26521" lon="4.97568">
        <ele>389</ele>
        <time>2021-05-01T21:21:32Z</time>
      </trkpt>
      <trkpt lat="45.26565" lon="4.97525">
        <ele>389</ele>
        <time>2021-05-01T21:21:45Z</time>
      </trkpt>
      <trkpt lat="45.26604" lon="4.9747">
        <ele>390</ele>
        <time>2021-05-01T21:21:58Z</time>
      </trkpt>
      <trkpt lat="45.26664" lon="4.97498">
        <ele>392</ele>
        <time>2021-05-01T21:22:12Z</time>
      </trkpt>
      <trkpt lat="45.26736" lon="4.97518">
        <ele>392</ele>
        <time>2021-05-01T21:22:29Z</time>
      </trkpt>
      <trkpt lat="45.26788" lon="4.97498">
        <ele>393</ele>
        <time>2021-05-01T21:22:42Z</time>
      </trkpt>
      <trkpt lat="45.26842" lon="4.97497">
        <ele>393</ele>
        <time>2021-05-01T21:22:55Z</time>
      </trkpt>
      <trkpt lat="45.26987" lon="4.97459">
        <ele>391</ele>
        <time>2021-05-01T21:23:29Z</time>
      </trkpt>
      <trkpt lat="45.27059" lon="4.97453">
        <ele>390</ele>
        <time>2021-05-01T21:23:46Z</time>
      </trkpt>
      <trkpt lat="45.27204" lon="4.97492">
        <ele>380</ele>
        <time>2021-05-01T21:24:20Z</time>
      </trkpt>
      <trkpt lat="45.27269" lon="4.97524">
        <ele>371</ele>
        <time>2021-05-01T21:24:36Z</time>
      </trkpt>
      <trkpt lat="45.2733" lon="4.97514">
        <ele>366</ele>
        <time>2021-05-01T21:24:51Z</time>
      </trkpt>
      <trkpt lat="45.2739" lon="4.97526">
        <ele>356</ele>
        <time>2021-05-01T21:25:05Z</time>
      </trkpt>
      <trkpt lat="45.27443" lon="4.97484">
        <ele>351</ele>
        <time>2021-05-01T21:25:19Z</time>
      </trkpt>
      <trkpt lat="45.27505" lon="4.97516">
        <ele>342</ele>
        <time>2021-05-01T21:25:35Z</time>
      </trkpt>
      <trkpt lat="45.27574" lon="4.97573">
        <ele>327</ele>
        <time>2021-05-01T21:25:53Z</time>
      </trkpt>
      <trkpt lat="45.27591" lon="4.97619">
        <ele>320</ele>
        <time>2021-05-01T21:26:02Z</time>
      </trkpt>
      <trkpt lat="45.27613" lon="4.9761">
        <ele>317</ele>
        <time>2021-05-01T21:26:07Z</time>
      </trkpt>
      <trkpt lat="45.2764" lon="4.97516">
        <ele>313</ele>
        <time>2021-05-01T21:26:24Z</time>
      </trkpt>
      <trkpt lat="45.27667" lon="4.97489">
        <ele>306</ele>
        <time>2021-05-01T21:26:31Z</time>
      </trkpt>
      <trkpt lat="45.27662" lon="4.9738">
        <ele>302</ele>
        <time>2021-05-01T21:26:49Z</time>
      </trkpt>
      <trkpt lat="45.27707" lon="4.97376">
        <ele>296</ele>
        <time>2021-05-01T21:27:00Z</time>
      </trkpt>
      <trkpt lat="45.27752" lon="4.97378">
        <ele>291</ele>
        <time>2021-05-01T21:27:10Z</time>
      </trkpt>
      <trkpt lat="45.27786" lon="4.97335">
        <ele>289</ele>
        <time>2021-05-01T21:27:21Z</time>
      </trkpt>
      <trkpt lat="45.27761" lon="4.9726">
        <ele>291</ele>
        <time>2021-05-01T21:27:35Z</time>
      </trkpt>
      <trkpt lat="45.27726" lon="4.97208">
        <ele>294</ele>
        <time>2021-05-01T21:27:47Z</time>
      </trkpt>
      <trkpt lat="45.27703" lon="4.9713">
        <ele>296</ele>
        <time>2021-05-01T21:28:00Z</time>
      </trkpt>
      <trkpt lat="45.27681" lon="4.97043">
        <ele>298</ele>
        <time>2021-05-01T21:28:16Z</time>
      </trkpt>
      <trkpt lat="45.2763" lon="4.96916">
        <ele>298</ele>
        <time>2021-05-01T21:28:40Z</time>
      </trkpt>
      <trkpt lat="45.2757" lon="4.96961">
        <ele>305</ele>
        <time>2021-05-01T21:28:55Z</time>
      </trkpt>
      <trkpt lat="45.27509" lon="4.96805">
        <ele>303</ele>
        <time>2021-05-01T21:29:25Z</time>
      </trkpt>
      <trkpt lat="45.27568" lon="4.96757">
        <ele>299</ele>
        <time>2021-05-01T21:29:41Z</time>
      </trkpt>
      <trkpt lat="45.27656" lon="4.96758">
        <ele>290</ele>
        <time>2021-05-01T21:30:01Z</time>
      </trkpt>
      <trkpt lat="45.27701" lon="4.96738">
        <ele>283</ele>
        <time>2021-05-01T21:30:12Z</time>
      </trkpt>
      <trkpt lat="45.27776" lon="4.96738">
        <ele>276</ele>
        <time>2021-05-01T21:30:30Z</time>
      </trkpt>
      <trkpt lat="45.27828" lon="4.9662">
        <ele>269</ele>
        <time>2021-05-01T21:30:53Z</time>
      </trkpt>
      <trkpt lat="45.2787" lon="4.9665">
        <ele>269</ele>
        <time>2021-05-01T21:31:04Z</time>
      </trkpt>
      <trkpt lat="45.27945" lon="4.96603">
        <ele>266</ele>
        <time>2021-05-01T21:31:23Z</time>
      </trkpt>
      <trkpt lat="45.27953" lon="4.96571">
        <ele>265</ele>
        <time>2021-05-01T21:31:28Z</time>
      </trkpt>
    </trkseg>
  </trk>
</gpx>